Time;durP1;ratioP1;P1;durP2;ratioP2;P2;SDS_P1;SDS_P2;PMS_P1;PMS_P2;Temp;Humidity;BMP_temperature;BMP_pressure;BME280_temperature;BME280_humidity;BME280_pressure;Samples;Min_cycle;Max_cycle;Signal;HPM_P1;HPM_P2
2023/11/22 00:02:29;;;;;;;;;;;;;;;19.64;67.14;100230.81;7396886;19;2153;-44
2023/11/22 00:04:57;;;;;;;;;;;;;;;19.61;67.05;100236.47;7399565;19;1676;-44
2023/11/22 00:07:28;;;;;;;;;;;;;;;19.59;66.86;100237.63;7398869;19;1642;-45
2023/11/22 00:09:57;;;;;;;;;;;;;;;19.57;67.19;100240.44;7397257;19;1858;-44
2023/11/22 00:12:27;;;;;;;;;;;;;;;19.50;67.24;100241.22;7398913;19;1591;-44
2023/11/22 00:14:58;;;;;;;;;;;;;;;19.51;67.11;100240.22;7398686;19;1482;-44
2023/11/22 00:17:27;;;;;;;;;;;;;;;19.57;67.04;100244.97;7399520;19;1631;-44
2023/11/22 00:19:55;;;;;;;;;;;;;;;19.59;66.95;100237.63;7398696;19;1600;-44
2023/11/22 00:22:23;;;;;;;;;;;;;;;19.58;66.80;100254.72;7395434;19;1462;-44
2023/11/22 00:24:52;;;;;;;;;;;;;;;19.51;66.98;100248.28;7398285;19;1600;-44
2023/11/22 00:27:21;;;;;;;;;;;;;;;19.47;67.29;100243.19;7399005;19;1579;-44
2023/11/22 00:29:50;;;;;;;;;;;;;;;19.49;67.10;100248.41;7396169;19;1862;-44
2023/11/22 00:32:21;;;;;;;;;;;;;;;19.51;66.97;100241.06;7399422;19;1040;-44
2023/11/22 00:34:50;;;;;;;;;;;;;;;19.54;66.98;100250.66;7398222;19;1933;-44
2023/11/22 00:37:18;;;;;;;;;;;;;;;19.51;66.67;100250.97;7398155;19;1559;-44
2023/11/22 00:39:46;;;;;;;;;;;;;;;19.50;67.10;100243.88;7397726;19;1490;-44
2023/11/22 00:42:14;;;;;;;;;;;;;;;19.46;67.02;100241.53;7398170;19;1619;-44
2023/11/22 00:44:43;;;;;;;;;;;;;;;19.45;66.79;100237.16;7398433;19;1486;-44
2023/11/22 00:47:11;;;;;;;;;;;;;;;19.48;66.90;100236.84;7398109;19;1517;-44
2023/11/22 00:49:42;;;;;;;;;;;;;;;19.47;66.93;100248.56;7396792;19;1855;-44
2023/11/22 00:52:11;;;;;;;;;;;;;;;19.51;66.98;100240.22;7396152;19;1509;-44
2023/11/22 00:54:39;;;;;;;;;;;;;;;19.52;66.51;100244.59;7397686;19;1510;-44
2023/11/22 00:57:07;;;;;;;;;;;;;;;19.53;66.52;100227.50;7397345;19;1593;-44
2023/11/22 00:59:36;;;;;;;;;;;;;;;19.56;66.61;100205.75;7397255;19;1858;-44
2023/11/22 01:02:05;;;;;;;;;;;;;;;19.60;66.27;100207.16;7398406;19;1009;-44
2023/11/22 01:04:35;;;;;;;;;;;;;;;19.57;66.48;100204.75;7396416;19;1450;-44
2023/11/22 01:07:06;;;;;;;;;;;;;;;19.55;66.39;100209.44;7397071;19;1560;-44
2023/11/22 01:09:35;;;;;;;;;;;;;;;19.57;66.25;100218.16;7395480;19;1863;-44
2023/11/22 01:12:04;;;;;;;;;;;;;;;19.55;66.30;100212.09;7397463;19;1580;-44
2023/11/22 01:14:32;;;;;;;;;;;;;;;19.58;66.28;100219.88;7397261;19;1604;-44
2023/11/22 01:17:00;;;;;;;;;;;;;;;19.48;66.49;100227.97;7397545;19;1712;-44
2023/11/22 01:19:29;;;;;;;;;;;;;;;19.39;66.76;100221.66;7397246;19;1624;-44
2023/11/22 01:21:57;;;;;;;;;;;;;;;19.38;66.99;100214.63;7397089;19;1559;-44
2023/11/22 01:24:29;;;;;;;;;;;;;;;19.35;67.03;100201.50;7396068;19;1672;-44
2023/11/22 01:26:57;;;;;;;;;;;;;;;19.43;66.89;100217.69;7396550;19;1324;-44
2023/11/22 01:29:26;;;;;;;;;;;;;;;19.51;66.26;100208.88;7395575;19;1860;-44
2023/11/22 01:31:55;;;;;;;;;;;;;;;19.54;66.16;100213.13;7396728;19;1504;-44
2023/11/22 01:34:23;;;;;;;;;;;;;;;19.38;66.85;100220.00;7396206;19;1390;-44
2023/11/22 01:36:52;;;;;;;;;;;;;;;19.34;66.81;100202.53;7396516;19;1547;-44
2023/11/22 01:39:20;;;;;;;;;;;;;;;19.38;66.78;100205.75;7396069;19;1390;-44
2023/11/22 01:41:52;;;;;;;;;;;;;;;19.37;66.99;100196.84;7396523;19;1564;-44
2023/11/22 01:44:20;;;;;;;;;;;;;;;19.34;66.92;100198.97;7396256;19;1494;-44
2023/11/22 01:46:49;;;;;;;;;;;;;;;19.37;66.77;100190.66;7396743;19;1462;-44
2023/11/22 01:49:17;;;;;;;;;;;;;;;19.36;67.03;100200.53;7395042;19;1854;-44
2023/11/22 01:51:45;;;;;;;;;;;;;;;19.29;67.02;100204.81;7394741;19;1578;-44
2023/11/22 01:54:14;;;;;;;;;;;;;;;19.32;67.00;100204.50;7395457;19;1552;-44
2023/11/22 01:56:42;;;;;;;;;;;;;;;19.35;66.75;100212.25;7393654;19;1516;-44
2023/11/22 01:59:14;;;;;;;;;;;;;;;19.26;66.96;100218.53;7395246;19;1612;-44
2023/11/22 02:01:43;;;;;;;;;;;;;;;19.37;66.63;100206.72;7396360;19;1085;-44
2023/11/22 02:04:11;;;;;;;;;;;;;;;19.42;66.36;100199.94;7395280;19;1482;-44
2023/11/22 02:06:39;;;;;;;;;;;;;;;19.52;66.16;100210.59;7395893;19;1565;-44
2023/11/22 02:09:13;;;;;;;;;;;;;;;19.39;66.25;100216.31;7391807;19;1870;-44
2023/11/22 02:11:42;;;;;;;;;;;;;;;19.33;66.85;100233.00;7395446;19;1476;-44
2023/11/22 02:14:13;;;;;;;;;;;;;;;19.30;66.57;100236.00;7395691;19;1105;-44
2023/11/22 02:16:42;;;;;;;;;;;;;;;19.28;66.88;100237.97;7395521;19;1466;-44
2023/11/22 02:19:16;;;;;;;;;;;;;;;19.26;66.89;100229.25;7395745;19;1490;-44
2023/11/22 02:21:45;;;;;;;;;;;;;;;19.27;66.97;100230.91;7394254;19;1561;-44
2023/11/22 02:24:16;;;;;;;;;;;;;;;19.63;65.92;100228.28;7393151;19;1492;-44
2023/11/22 02:26:46;;;;;;;;;;;;;;;20.00;64.92;100230.00;7393854;19;1624;-44
2023/11/22 02:29:15;;;;;;;;;;;;;;;21.05;62.08;100218.22;7392349;19;1852;-44
2023/11/22 02:31:46;;;;;;;;;;;;;;;21.59;60.70;100211.69;7395525;19;1223;-44
2023/11/22 02:34:15;;;;;;;;;;;;;;;21.74;60.27;100225.31;7394279;19;1520;-44
2023/11/22 02:36:44;;;;;;;;;;;;;;;21.79;60.01;100229.19;7394593;19;1557;-44
2023/11/22 02:39:16;;;;;;;;;;;;;;;21.93;59.93;100234.94;7393418;19;1453;-44
2023/11/22 02:41:44;;;;;;;;;;;;;;;21.96;59.59;100229.19;7393741;19;1833;-44
2023/11/22 02:44:15;;;;;;;;;;;;;;;22.17;59.23;100259.16;7394150;19;1497;-44
2023/11/22 02:46:43;;;;;;;;;;;;;;;22.13;59.28;100219.28;7394181;19;1438;-44
2023/11/22 02:49:12;;;;;;;;;;;;;;;22.19;59.34;100224.81;7393532;19;1853;-44
2023/11/22 02:51:40;;;;;;;;;;;;;;;22.17;59.41;100234.06;7394693;19;1530;-44
2023/11/22 02:54:09;;;;;;;;;;;;;;;22.27;59.15;100250.94;7393785;19;1946;-44
2023/11/22 02:56:40;;;;;;;;;;;;;;;22.25;59.20;100258.34;7393442;19;1431;-44
2023/11/22 02:59:13;;;;;;;;;;;;;;;22.33;59.06;100257.50;7395344;19;986;-44
2023/11/22 03:01:42;;;;;;;;;;;;;;;22.36;59.31;100260.69;7394889;19;995;-44
2023/11/22 03:04:10;;;;;;;;;;;;;;;22.43;58.94;100258.16;7394187;19;1591;-44
2023/11/22 03:06:40;;;;;;;;;;;;;;;22.34;59.11;100265.41;7391526;19;1572;-44
2023/11/22 03:09:08;;;;;;;;;;;;;;;22.35;59.26;100253.63;7392591;19;1863;-44
2023/11/22 03:11:36;;;;;;;;;;;;;;;22.36;58.94;100265.22;7393434;19;1596;-44
2023/11/22 03:14:07;;;;;;;;;;;;;;;22.27;59.47;100271.66;7392387;19;1399;-44
2023/11/22 03:16:36;;;;;;;;;;;;;;;22.17;59.69;100258.31;7392493;19;1540;-44
2023/11/22 03:19:04;;;;;;;;;;;;;;;22.22;59.77;100255.94;7393115;19;1486;-44
2023/11/22 03:21:32;;;;;;;;;;;;;;;22.30;59.60;100257.81;7401371;19;1465;-44
2023/11/22 03:24:03;;;;;;;;;;;;;;;22.29;59.50;100256.16;7398135;19;1422;-48
2023/11/22 03:26:31;;;;;;;;;;;;;;;22.34;59.15;100251.09;7400659;19;1088;-45
2023/11/22 03:29:00;;;;;;;;;;;;;;;22.37;59.28;100258.84;7400060;19;1850;-44
2023/11/22 03:31:31;;;;;;;;;;;;;;;22.38;59.11;100255.97;7399050;19;1492;-44
2023/11/22 03:34:00;;;;;;;;;;;;;;;22.41;59.25;100266.41;7396437;19;2874;-44
2023/11/22 03:36:28;;;;;;;;;;;;;;;22.42;59.21;100262.72;7400368;19;1552;-44
2023/11/22 03:38:56;;;;;;;;;;;;;;;22.38;59.27;100260.50;7399401;19;1521;-44
2023/11/22 03:41:25;;;;;;;;;;;;;;;22.37;59.31;100253.44;7400626;19;1501;-46
2023/11/22 03:43:53;;;;;;;;;;;;;;;22.38;59.19;100260.50;7399710;19;1517;-44
2023/11/22 03:46:21;;;;;;;;;;;;;;;22.47;59.08;100250.56;7384677;19;1563;-45
2023/11/22 03:48:52;;;;;;;;;;;;;;;22.51;58.91;100247.34;7399757;19;1898;-44
2023/11/22 03:51:21;;;;;;;;;;;;;;;22.53;58.84;100242.63;7397703;19;1867;-44
2023/11/22 03:53:49;;;;;;;;;;;;;;;22.51;58.99;100235.75;7400477;19;1153;-44
2023/11/22 03:56:17;;;;;;;;;;;;;;;22.13;59.66;100247.03;7399907;19;1209;-44
2023/11/22 03:58:46;;;;;;;;;;;;;;;21.50;61.37;100244.94;7399116;19;1501;-44
2023/11/22 04:01:14;;;;;;;;;;;;;;;21.19;62.32;100280.47;7397580;19;1567;-44
2023/11/22 04:03:43;;;;;;;;;;;;;;;20.98;62.54;100262.88;7399348;19;1545;-44
2023/11/22 04:06:15;;;;;;;;;;;;;;;20.84;63.13;100279.63;7398389;19;1393;-44
2023/11/22 04:08:43;;;;;;;;;;;;;;;20.75;63.41;100268.00;7397802;19;1438;-44
2023/11/22 04:11:12;;;;;;;;;;;;;;;20.65;63.38;100272.59;7396625;19;1874;-44
2023/11/22 04:13:40;;;;;;;;;;;;;;;20.63;63.49;100286.22;7400102;19;1123;-44
2023/11/22 04:16:12;;;;;;;;;;;;;;;20.51;63.74;100283.91;7399389;19;1957;-44
2023/11/22 04:18:40;;;;;;;;;;;;;;;20.43;64.07;100282.00;7398457;19;1817;-44
2023/11/22 04:21:08;;;;;;;;;;;;;;;20.43;63.88;100292.72;7397282;19;1375;-44
2023/11/22 04:23:39;;;;;;;;;;;;;;;20.39;63.97;100286.84;7396482;19;1517;-44
2023/11/22 04:26:08;;;;;;;;;;;;;;;20.39;63.97;100294.91;7398949;19;1584;-44
2023/11/22 04:28:36;;;;;;;;;;;;;;;20.36;63.82;100276.41;7397271;19;1383;-44
2023/11/22 04:31:04;;;;;;;;;;;;;;;20.32;64.05;100271.53;7393105;19;1864;-44
2023/11/22 04:33:33;;;;;;;;;;;;;;;20.19;64.47;100283.50;7398128;19;1508;-44
2023/11/22 04:36:01;;;;;;;;;;;;;;;20.11;64.60;100285.25;7397864;19;1551;-44
2023/11/22 04:38:30;;;;;;;;;;;;;;;20.00;64.99;100283.66;7398079;19;1550;-44
2023/11/22 04:41:01;;;;;;;;;;;;;;;19.99;65.42;100273.91;7395713;19;1528;-44
2023/11/22 04:43:29;;;;;;;;;;;;;;;19.96;65.19;100282.28;7394846;19;2775;-44
2023/11/22 04:45:57;;;;;;;;;;;;;;;19.65;65.44;100242.38;7397804;19;1536;-44
2023/11/22 04:48:26;;;;;;;;;;;;;;;19.92;65.50;100305.06;7376247;19;1367;-44
2023/11/22 04:50:54;;;;;;;;;;;;;;;19.86;65.54;100290.41;7396097;19;1908;-44
2023/11/22 04:53:22;;;;;;;;;;;;;;;19.93;65.20;100298.69;7397194;19;1450;-45
2023/11/22 04:55:51;;;;;;;;;;;;;;;19.85;65.71;100307.50;7398552;19;1516;-44
2023/11/22 04:58:22;;;;;;;;;;;;;;;19.81;65.94;100323.06;7397271;19;1493;-44
2023/11/22 05:00:50;;;;;;;;;;;;;;;19.79;65.61;100313.47;7398406;19;1584;-44
2023/11/22 05:03:18;;;;;;;;;;;;;;;19.88;65.53;100327.84;7397491;19;1320;-44
2023/11/22 05:05:47;;;;;;;;;;;;;;;19.97;65.19;100319.69;7397703;19;1676;-44
2023/11/22 05:08:16;;;;;;;;;;;;;;;20.07;64.71;100335.72;7396927;19;1549;-44
2023/11/22 05:10:44;;;;;;;;;;;;;;;19.95;64.96;100328.91;7396374;19;1847;-44
2023/11/22 05:13:12;;;;;;;;;;;;;;;19.82;65.50;100372.22;7396683;19;1517;-44
2023/11/22 05:15:43;;;;;;;;;;;;;;;19.74;65.79;100342.63;7396698;19;1603;-44
2023/11/22 05:18:12;;;;;;;;;;;;;;;19.68;66.02;100344.84;7397069;19;1502;-44
2023/11/22 05:20:40;;;;;;;;;;;;;;;19.66;66.15;100352.22;7397397;19;1497;-44
2023/11/22 05:23:08;;;;;;;;;;;;;;;19.67;65.95;100367.28;7397016;19;1581;-44
2023/11/22 05:25:37;;;;;;;;;;;;;;;19.65;66.03;100355.88;7396575;19;1485;-44
2023/11/22 05:28:05;;;;;;;;;;;;;;;19.66;66.03;100346.00;7396033;19;1670;-44
2023/11/22 05:30:33;;;;;;;;;;;;;;;19.71;65.92;100351.78;7396002;19;1837;-44
2023/11/22 05:33:04;;;;;;;;;;;;;;;19.72;65.90;100329.34;7397610;19;1096;-44
2023/11/22 05:35:33;;;;;;;;;;;;;;;19.63;65.93;100325.69;7395153;19;1288;-44
2023/11/22 05:38:02;;;;;;;;;;;;;;;19.60;66.08;100343.94;7396288;19;1819;-44
2023/11/22 05:40:30;;;;;;;;;;;;;;;19.64;65.88;100351.53;7395572;19;1488;-44
2023/11/22 05:42:58;;;;;;;;;;;;;;;19.75;65.53;100366.59;7394062;19;1637;-44
2023/11/22 05:45:27;;;;;;;;;;;;;;;19.74;65.49;100370.28;7395775;19;1492;-44
2023/11/22 05:47:55;;;;;;;;;;;;;;;19.74;65.52;100377.50;7381041;19;1549;-44
2023/11/22 05:50:26;;;;;;;;;;;;;;;19.69;65.40;100377.88;7395113;19;1851;-52
2023/11/22 05:52:54;;;;;;;;;;;;;;;19.66;65.44;100362.94;7395372;19;1481;-44
2023/11/22 05:55:22;;;;;;;;;;;;;;;19.70;65.64;100384.13;7395297;19;1453;-44
2023/11/22 05:57:51;;;;;;;;;;;;;;;19.67;65.41;100388.75;7396105;19;1557;-44
2023/11/22 06:00:20;;;;;;;;;;;;;;;19.71;65.22;100391.16;7395991;19;1456;-44
2023/11/22 06:02:49;;;;;;;;;;;;;;;19.69;65.42;100383.25;7396376;19;1065;-46
2023/11/22 06:05:17;;;;;;;;;;;;;;;19.62;65.74;100392.91;7394514;19;1493;-44
2023/11/22 06:07:48;;;;;;;;;;;;;;;19.59;65.79;100406.59;7391866;19;1573;-44
2023/11/22 06:10:16;;;;;;;;;;;;;;;19.57;65.91;100428.19;7393057;19;1841;-44
2023/11/22 06:12:45;;;;;;;;;;;;;;;19.54;65.85;100428.50;7393873;19;1505;-44
2023/11/22 06:15:13;;;;;;;;;;;;;;;19.59;65.73;100430.75;7392443;19;1474;-44
2023/11/22 06:17:42;;;;;;;;;;;;;;;19.67;65.56;100429.00;7394364;19;1523;-44
2023/11/22 06:20:12;;;;;;;;;;;;;;;19.71;65.16;100431.41;7394695;19;1552;-44
2023/11/22 06:22:42;;;;;;;;;;;;;;;19.64;65.47;100428.47;7393935;19;1545;-44
2023/11/22 06:25:13;;;;;;;;;;;;;;;19.55;65.71;100432.88;7394322;19;1496;-44
2023/11/22 06:27:42;;;;;;;;;;;;;;;19.47;65.82;100433.59;7394503;19;1210;-44
2023/11/22 06:30:11;;;;;;;;;;;;;;;19.44;65.73;100428.53;7394349;19;1841;-45
2023/11/22 06:32:41;;;;;;;;;;;;;;;19.45;65.72;100435.56;7394654;19;1593;-44
2023/11/22 06:35:14;;;;;;;;;;;;;;;19.43;65.89;100448.28;7393847;19;1563;-44
2023/11/22 06:37:42;;;;;;;;;;;;;;;19.44;65.79;100452.69;7392481;19;1600;-45
2023/11/22 06:40:15;;;;;;;;;;;;;;;19.42;65.74;100472.59;7392793;19;1623;-45
2023/11/22 06:42:45;;;;;;;;;;;;;;;19.38;65.74;100455.94;7391730;19;1557;-44
2023/11/22 06:45:13;;;;;;;;;;;;;;;19.37;66.08;100478.38;7392002;19;1545;-44
2023/11/22 06:47:41;;;;;;;;;;;;;;;19.31;66.45;100470.91;7374808;19;1684;-44
2023/11/22 06:50:12;;;;;;;;;;;;;;;19.28;66.48;100482.78;7393940;19;1851;-45
2023/11/22 06:52:40;;;;;;;;;;;;;;;19.35;66.56;100509.00;7391955;19;1424;-44
2023/11/22 06:55:10;;;;;;;;;;;;;;;19.81;65.36;100505.50;7389760;19;1865;-43
2023/11/22 06:57:41;;;;;;;;;;;;;;;20.42;64.33;100492.50;7393271;19;1552;-43
2023/11/22 07:00:10;;;;;;;;;;;;;;;20.29;64.55;100487.47;7392786;19;1514;-44
2023/11/22 07:02:39;;;;;;;;;;;;;;;19.99;63.42;100491.31;7392827;19;1569;-43
2023/11/22 07:05:08;;;;;;;;;;;;;;;19.91;64.87;100512.69;7388616;19;1549;-44
2023/11/22 07:07:37;;;;;;;;;;;;;;;20.43;63.66;100502.22;7391226;19;1490;-43
2023/11/22 07:10:05;;;;;;;;;;;;;;;20.56;62.61;100502.72;7393329;19;1497;-43
2023/11/22 07:12:34;;;;;;;;;;;;;;;19.82;62.07;100501.00;7393448;19;1264;-44
2023/11/22 07:15:05;;;;;;;;;;;;;;;19.66;62.43;100523.06;7392248;19;1572;-44
2023/11/22 07:17:36;;;;;;;;;;;;;;;19.90;63.35;100513.69;7390267;19;1533;-44
2023/11/22 07:20:08;;;;;;;;;;;;;;;20.62;62.69;100529.00;7394017;19;1493;-44
2023/11/22 07:22:36;;;;;;;;;;;;;;;20.79;62.33;100526.47;7393803;19;1797;-44
2023/11/22 07:25:06;;;;;;;;;;;;;;;20.52;63.50;100522.81;7393663;19;1527;-44
2023/11/22 07:27:34;;;;;;;;;;;;;;;20.22;65.30;100522.13;7389417;19;1602;-44
2023/11/22 07:30:07;;;;;;;;;;;;;;;20.10;65.21;100543.97;7391930;19;1327;-44
2023/11/22 07:32:35;;;;;;;;;;;;;;;20.30;65.66;100547.41;7390804;19;1859;-43
2023/11/22 07:35:03;;;;;;;;;;;;;;;20.78;64.61;100538.22;7391489;19;1569;-43
2023/11/22 07:37:32;;;;;;;;;;;;;;;20.83;64.73;100536.78;7392149;19;1412;-43
2023/11/22 07:40:00;;;;;;;;;;;;;;;20.48;65.34;100528.66;7390473;19;1489;-44
2023/11/22 07:42:29;;;;;;;;;;;;;;;20.26;65.94;100542.31;7393284;19;1073;-43
2023/11/22 07:44:57;;;;;;;;;;;;;;;20.08;66.62;100544.13;7392437;19;1778;-44
2023/11/22 07:47:28;;;;;;;;;;;;;;;20.45;67.44;100540.53;7393186;19;1569;-44
2023/11/22 07:49:57;;;;;;;;;;;;;;;20.82;66.34;100531.56;7370317;19;1509;-45
2023/11/22 07:52:29;;;;;;;;;;;;;;;20.85;66.77;100564.34;7386395;19;1834;-45
2023/11/22 07:54:57;;;;;;;;;;;;;;;20.50;67.91;100548.97;7390848;19;1504;-45
2023/11/22 07:57:26;;;;;;;;;;;;;;;20.30;68.58;100563.53;7388357;19;1573;-46
2023/11/22 07:59:55;;;;;;;;;;;;;;;20.21;69.00;100563.44;7386807;19;1583;-45
2023/11/22 08:02:25;;;;;;;;;;;;;;;20.28;70.02;100566.34;7388818;19;1830;-45
2023/11/22 08:04:56;;;;;;;;;;;;;;;20.82;68.40;100547.66;7390109;19;1528;-45
2023/11/22 08:07:26;;;;;;;;;;;;;;;20.93;68.33;100542.09;7395790;19;1506;-45
2023/11/22 08:09:54;;;;;;;;;;;;;;;20.74;68.81;100556.50;7396156;19;1522;-45
2023/11/22 08:12:23;;;;;;;;;;;;;;;20.44;69.22;100560.34;7395455;19;1839;-45
2023/11/22 08:14:55;;;;;;;;;;;;;;;20.32;69.64;100572.28;7394457;19;1425;-46
2023/11/22 08:17:23;;;;;;;;;;;;;;;20.24;69.80;100579.22;7394770;19;1570;-44
2023/11/22 08:19:52;;;;;;;;;;;;;;;20.28;69.65;100587.84;7392243;19;1460;-44
2023/11/22 08:22:25;;;;;;;;;;;;;;;20.71;68.07;100582.81;7393325;19;1637;-43
2023/11/22 08:24:55;;;;;;;;;;;;;;;20.84;67.84;100594.06;7395724;19;1492;-44
2023/11/22 08:27:23;;;;;;;;;;;;;;;20.64;68.48;100599.53;7393814;19;1331;-43
2023/11/22 08:29:52;;;;;;;;;;;;;;;19.97;68.87;100512.09;7392881;19;1445;-44
2023/11/22 08:32:23;;;;;;;;;;;;;;;20.27;68.56;100592.38;7395570;19;1911;-44
2023/11/22 08:34:51;;;;;;;;;;;;;;;20.38;69.31;100590.47;7397651;19;1410;-44
2023/11/22 08:37:20;;;;;;;;;;;;;;;20.91;67.23;100592.47;7396575;19;1410;-44
2023/11/22 08:39:51;;;;;;;;;;;;;;;20.75;66.86;100600.31;7397161;19;1897;-44
2023/11/22 08:42:19;;;;;;;;;;;;;;;20.51;68.00;100614.28;7398796;19;1184;-44
2023/11/22 08:44:48;;;;;;;;;;;;;;;20.36;68.18;100616.63;7397464;19;1452;-43
2023/11/22 08:47:17;;;;;;;;;;;;;;;20.19;68.67;100610.19;7399249;19;1152;-44
2023/11/22 08:49:48;;;;;;;;;;;;;;;20.26;68.61;100625.56;7378078;19;2591;-44
2023/11/22 08:52:16;;;;;;;;;;;;;;;20.82;66.91;100612.16;7394318;19;1849;-44
2023/11/22 08:54:44;;;;;;;;;;;;;;;20.75;66.87;100630.75;7398030;19;1256;-44
2023/11/22 08:57:15;;;;;;;;;;;;;;;20.49;67.76;100633.22;7397902;19;1228;-43
2023/11/22 08:59:44;;;;;;;;;;;;;;;20.19;68.39;100632.53;7397262;19;1090;-44
2023/11/22 09:02:12;;;;;;;;;;;;;;;20.10;69.59;100624.50;7397783;19;1145;-44
2023/11/22 09:04:41;;;;;;;;;;;;;;;20.21;69.09;100630.56;7397144;19;1188;-43
2023/11/22 09:07:10;;;;;;;;;;;;;;;20.77;67.30;100636.81;7395747;19;1216;-43
2023/11/22 09:09:41;;;;;;;;;;;;;;;20.57;67.27;100640.56;7397398;19;1130;-43
2023/11/22 09:12:12;;;;;;;;;;;;;;;20.26;67.72;100640.84;7395731;19;1863;-43
2023/11/22 09:14:44;;;;;;;;;;;;;;;20.13;68.54;100646.53;7396698;19;1343;-44
2023/11/22 09:17:13;;;;;;;;;;;;;;;20.04;68.48;100639.34;7395355;19;1148;-44
2023/11/22 09:19:41;;;;;;;;;;;;;;;20.53;66.65;100634.66;7396956;19;1157;-43
2023/11/22 09:22:11;;;;;;;;;;;;;;;20.56;65.60;100639.72;7397359;19;1105;-43
2023/11/22 09:24:40;;;;;;;;;;;;;;;20.33;65.79;100643.78;7398129;19;1183;-44
2023/11/22 09:27:10;;;;;;;;;;;;;;;20.19;66.50;100645.97;7396246;19;1308;-44
2023/11/22 09:29:36;;;;;;;;;;;;;;;20.05;67.03;100630.28;7396638;19;1626;-44
2023/11/22 09:32:07;;;;;;;;;;;;;;;20.25;66.08;100653.44;7393430;19;2355;-43
2023/11/22 09:34:36;;;;;;;;;;;;;;;20.60;65.18;100651.88;7396958;19;1493;-44
2023/11/22 09:37:04;;;;;;;;;;;;;;;20.41;65.14;100642.06;7387081;19;1640;-44
2023/11/22 09:39:33;;;;;;;;;;;;;;;20.14;65.87;100656.28;7393983;19;1579;-44
2023/11/22 09:42:02;;;;;;;;;;;;;;;19.97;66.45;100638.22;7393176;19;1486;-44
2023/11/22 09:44:30;;;;;;;;;;;;;;;20.02;66.18;100649.41;7395262;19;1472;-44
2023/11/22 09:46:59;;;;;;;;;;;;;;;20.46;65.00;100641.59;7392800;19;1528;-44
2023/11/22 09:49:32;;;;;;;;;;;;;;;20.38;64.92;100652.25;7379584;19;1411;-44
2023/11/22 09:52:04;;;;;;;;;;;;;;;20.20;65.72;100655.69;7391955;19;1879;-44
2023/11/22 09:54:33;;;;;;;;;;;;;;;19.99;66.13;100653.19;7392708;19;1799;-44
2023/11/22 09:57:02;;;;;;;;;;;;;;;19.98;66.22;100672.16;7392912;19;1418;-43
2023/11/22 09:59:32;;;;;;;;;;;;;;;20.42;64.93;100673.28;7394528;19;1557;-44
2023/11/22 10:02:02;;;;;;;;;;;;;;;20.41;64.77;100676.09;7391168;19;1320;-43
2023/11/22 10:04:34;;;;;;;;;;;;;;;20.21;65.42;100678.88;7392549;19;1537;-44
2023/11/22 10:07:04;;;;;;;;;;;;;;;20.07;65.65;100684.69;7391804;19;1441;-44
2023/11/22 10:09:32;;;;;;;;;;;;;;;20.04;66.10;100698.41;7390888;19;1486;-44
2023/11/22 10:12:01;;;;;;;;;;;;;;;20.22;65.68;100690.47;7390022;19;1938;-44
2023/11/22 10:14:30;;;;;;;;;;;;;;;20.54;65.03;100698.13;7392296;19;1446;-43
2023/11/22 10:17:02;;;;;;;;;;;;;;;20.49;64.58;100704.94;7392432;19;1488;-44
2023/11/22 10:19:33;;;;;;;;;;;;;;;20.32;65.47;100698.50;7392146;19;1434;-44
2023/11/22 10:22:04;;;;;;;;;;;;;;;20.16;66.19;100686.50;7389238;19;1919;-44
2023/11/22 10:24:33;;;;;;;;;;;;;;;20.09;66.65;100676.50;7391381;19;1335;-44
2023/11/22 10:27:01;;;;;;;;;;;;;;;20.02;67.09;100679.75;7392673;19;1514;-55
2023/11/22 10:29:30;;;;;;;;;;;;;;;20.27;66.91;100666.69;7391975;19;1842;-44
2023/11/22 10:31:58;;;;;;;;;;;;;;;20.91;65.03;100691.03;7391788;19;1842;-44
2023/11/22 10:34:27;;;;;;;;;;;;;;;20.63;65.05;100689.22;7393344;19;1546;-45
2023/11/22 10:37:00;;;;;;;;;;;;;;;20.34;65.27;100683.91;7393556;19;1472;-45
2023/11/22 10:39:29;;;;;;;;;;;;;;;20.22;65.93;100679.72;7393874;19;1533;-45
2023/11/22 10:41:57;;;;;;;;;;;;;;;20.08;66.70;100672.13;7393101;19;1290;-47
2023/11/22 10:44:25;;;;;;;;;;;;;;;20.27;66.27;100667.56;7395094;19;1595;-44
2023/11/22 10:46:54;;;;;;;;;;;;;;;20.74;65.20;100673.91;7394609;19;1109;-45
2023/11/22 10:49:22;;;;;;;;;;;;;;;20.55;65.10;100656.84;7378760;19;1399;-45
2023/11/22 10:51:54;;;;;;;;;;;;;;;20.33;65.58;100665.25;7392211;19;1845;-45
2023/11/22 10:54:26;;;;;;;;;;;;;;;20.13;66.58;100662.63;7393084;19;1485;-45
2023/11/22 10:56:57;;;;;;;;;;;;;;;20.02;67.06;100665.50;7392841;19;1552;-45
2023/11/22 10:59:29;;;;;;;;;;;;;;;20.47;66.23;100672.84;7392432;19;1353;-45
2023/11/22 11:01:58;;;;;;;;;;;;;;;20.90;64.96;100663.31;7393221;19;1309;-45
2023/11/22 11:04:30;;;;;;;;;;;;;;;20.71;65.16;100666.13;7392082;19;1513;-45
2023/11/22 11:07:00;;;;;;;;;;;;;;;20.38;66.22;100665.69;7388293;19;1586;-47
2023/11/22 11:09:32;;;;;;;;;;;;;;;20.17;66.80;100671.25;7390138;19;1535;-47
2023/11/22 11:12:02;;;;;;;;;;;;;;;20.08;67.08;100682.88;7390109;19;1856;-48
2023/11/22 11:14:30;;;;;;;;;;;;;;;20.27;65.95;100688.16;7390688;19;1567;-47
2023/11/22 11:16:59;;;;;;;;;;;;;;;20.70;64.67;100691.31;7388907;19;1520;-44
2023/11/22 11:19:27;;;;;;;;;;;;;;;20.55;64.73;100686.41;7388112;19;1433;-44
2023/11/22 11:21:57;;;;;;;;;;;;;;;20.26;65.49;100681.13;7389004;19;1612;-44
2023/11/22 11:24:25;;;;;;;;;;;;;;;20.20;65.93;100709.41;7386492;19;1415;-44
2023/11/22 11:26:56;;;;;;;;;;;;;;;20.06;66.01;100685.69;7388264;19;1614;-43
2023/11/22 11:29:34;;;;;;;;;;;;;;;20.43;65.23;100695.59;7389863;19;1893;-43
2023/11/22 11:32:05;;;;;;;;;;;;;;;20.78;64.64;100700.31;7389304;19;1847;-43
2023/11/22 11:34:34;;;;;;;;;;;;;;;20.58;64.90;100694.16;7388925;19;1481;-43
2023/11/22 11:37:03;;;;;;;;;;;;;;;20.40;65.56;100701.28;7390573;19;1397;-43
2023/11/22 11:39:32;;;;;;;;;;;;;;;20.24;66.18;100702.75;7391269;19;1473;-44
2023/11/22 11:42:16;;;;;;;;;;;;;;;20.17;66.40;100708.81;7393468;19;2499;-49
2023/11/22 11:44:54;;;;;;;;;;;;;;;20.11;66.41;100699.50;7396762;19;1510;-49
2023/11/22 11:47:22;;;;;;;;;;;;;;;20.11;66.37;100709.41;7397788;19;1597;-49
2023/11/22 11:49:51;;;;;;;;;;;;;;;20.63;65.26;100721.47;7383666;19;1573;-49
2023/11/22 11:52:20;;;;;;;;;;;;;;;20.62;64.60;100714.38;7396347;19;1864;-49
2023/11/22 11:54:48;;;;;;;;;;;;;;;20.37;65.33;100718.56;7397132;19;1389;-49
2023/11/22 11:57:19;;;;;;;;;;;;;;;20.20;65.74;100712.06;7396304;19;1454;-49
2023/11/22 11:59:48;;;;;;;;;;;;;;;20.12;65.99;100711.13;7396460;19;1425;-49
2023/11/22 12:02:19;;;;;;;;;;;;;;;20.24;66.04;100716.16;7396604;19;1414;-49
2023/11/22 12:04:47;;;;;;;;;;;;;;;20.71;64.72;100723.41;7396088;19;1544;-49
2023/11/22 12:07:15;;;;;;;;;;;;;;;20.80;64.17;100727.88;7393786;19;1548;-49
2023/11/22 12:09:44;;;;;;;;;;;;;;;20.54;64.71;100751.00;7395990;19;1512;-49
2023/11/22 12:12:12;;;;;;;;;;;;;;;20.31;65.73;100748.66;7394713;19;1871;-50
2023/11/22 12:14:43;;;;;;;;;;;;;;;20.14;65.89;100752.94;7395759;19;1490;-49
2023/11/22 12:17:12;;;;;;;;;;;;;;;20.19;66.08;100761.41;7396693;19;1389;-49
2023/11/22 12:19:40;;;;;;;;;;;;;;;20.71;64.81;100750.28;7397266;19;1537;-49
2023/11/22 12:22:11;;;;;;;;;;;;;;;20.66;64.57;100758.78;7396466;19;1468;-49
2023/11/22 12:24:40;;;;;;;;;;;;;;;20.40;65.02;100760.38;7393433;19;1627;-49
2023/11/22 12:27:12;;;;;;;;;;;;;;;20.18;65.60;100765.06;7395709;19;1599;-49
2023/11/22 12:29:45;;;;;;;;;;;;;;;20.05;66.01;100775.25;7396298;19;1394;-49
2023/11/22 12:32:17;;;;;;;;;;;;;;;20.27;65.49;100774.97;7396702;19;1855;-49
2023/11/22 12:34:46;;;;;;;;;;;;;;;20.76;63.88;100782.09;7396099;19;1636;-49
2023/11/22 12:37:15;;;;;;;;;;;;;;;20.62;64.01;100773.50;7394961;19;1488;-49
2023/11/22 12:39:46;;;;;;;;;;;;;;;20.32;64.94;100779.06;7396312;19;1494;-49
2023/11/22 12:42:14;;;;;;;;;;;;;;;20.10;65.45;100789.09;7395712;19;1583;-49
2023/11/22 12:45:00;;;;;;;;;;;;;;;20.01;65.79;100789.94;7394855;19;1494;-50
2023/11/22 12:47:37;;;;;;;;;;;;;;;20.37;65.01;100828.66;7394922;19;1527;-50
2023/11/22 12:50:07;;;;;;;;;;;;;;;20.66;63.88;100782.13;7380643;19;1530;-49
2023/11/22 12:52:35;;;;;;;;;;;;;;;20.46;64.33;100800.94;7394147;19;1849;-49
2023/11/22 12:55:04;;;;;;;;;;;;;;;20.24;65.01;100790.50;7392112;19;2555;-50
2023/11/22 12:57:32;;;;;;;;;;;;;;;19.58;64.93;100722.28;7395274;19;1611;-49
2023/11/22 13:00:01;;;;;;;;;;;;;;;20.09;65.48;100808.03;7394979;19;1862;-48